createdAt,value
2023-08-31T00:01:21.525Z,99315.53
2023-08-31T00:06:26.010Z,99293.63
2023-08-31T00:11:29.007Z,99276.75
2023-08-31T00:16:32.241Z,99307.34
2023-08-31T00:21:36.647Z,99291.34
2023-08-31T00:26:41.692Z,99291.34
2023-08-31T00:31:45.895Z,99301.34
2023-08-31T00:36:50.576Z,99289.75
2023-08-31T00:41:55.128Z,99292.94
2023-08-31T00:46:58.107Z,99310.09
2023-08-31T00:52:02.547Z,99308.03
2023-08-31T00:57:06.481Z,99321.66
2023-08-31T01:02:14.597Z,99332.59
2023-08-31T01:07:33.799Z,99333.13
2023-08-31T01:12:41.860Z,99339.97
2023-08-31T01:17:47.089Z,99337.28
2023-08-31T01:22:58.453Z,99349.19
2023-08-31T01:28:03.331Z,99354.72
2023-08-31T01:33:06.880Z,99337.34
2023-08-31T01:38:11.110Z,99335.72
2023-08-31T01:43:16.333Z,99356.84
2023-08-31T01:48:19.370Z,99346.75
2023-08-31T01:53:22.240Z,99343.47
2023-08-31T01:58:26.670Z,99340.00
2023-08-31T02:03:29.770Z,99333.75
2023-08-31T02:08:32.791Z,99332.19
2023-08-31T02:13:37.192Z,99346.59
2023-08-31T02:18:40.179Z,99357.19
2023-08-31T02:23:43.385Z,99357.78
2023-08-31T02:28:47.811Z,99358.78
2023-08-31T02:33:51.042Z,99368.38
2023-08-31T02:38:54.353Z,99373.25
2023-08-31T02:43:58.793Z,99368.16
2023-08-31T02:49:02.513Z,99371.09
2023-08-31T02:54:05.716Z,99373.75
2023-08-31T02:59:10.171Z,99388.03
2023-08-31T03:04:13.193Z,99388.88
2023-08-31T03:09:16.149Z,99385.56
2023-08-31T03:14:21.534Z,99393.91
2023-08-31T03:19:24.542Z,99393.69
2023-08-31T03:24:27.738Z,99384.34
2023-08-31T03:29:35.418Z,99394.94
2023-08-31T03:34:38.435Z,99399.44
2023-08-31T03:39:42.591Z,99398.84
2023-08-31T03:44:46.994Z,99400.28
2023-08-31T03:49:53.952Z,99414.53
2023-08-31T03:54:57.278Z,99410.25
2023-08-31T04:00:01.861Z,99413.28
2023-08-31T04:05:06.490Z,99415.53
2023-08-31T04:10:10.397Z,99426.75
2023-08-31T04:15:15.050Z,99427.75
2023-08-31T04:20:18.242Z,99434.88
2023-08-31T04:25:21.249Z,99436.50
2023-08-31T04:30:25.661Z,99440.38
2023-08-31T04:35:28.798Z,99442.19
2023-08-31T04:40:32.232Z,99449.75
2023-08-31T04:45:36.712Z,99460.78
2023-08-31T04:50:39.721Z,99471.34
2023-08-31T04:55:42.792Z,99472.38
2023-08-31T05:00:48.289Z,99478.88
2023-08-31T05:05:51.382Z,99484.38
2023-08-31T05:10:54.517Z,99492.53
2023-08-31T05:15:58.792Z,99503.94
2023-08-31T05:21:01.890Z,99504.16
2023-08-31T05:26:04.923Z,99509.22
2023-08-31T05:31:09.347Z,99514.53
2023-08-31T05:36:12.447Z,99523.88
2023-08-31T05:41:15.471Z,99524.94
2023-08-31T05:46:20.632Z,99524.94
2023-08-31T05:51:23.733Z,99524.50
2023-08-31T05:56:26.747Z,99526.38
2023-08-31T06:01:31.242Z,99544.69
2023-08-31T06:06:34.892Z,99546.13
2023-08-31T06:11:37.972Z,99542.88
2023-08-31T06:16:42.436Z,99552.22
2023-08-31T06:21:45.506Z,99549.78
2023-08-31T06:26:48.680Z,99552.03
2023-08-31T06:31:53.398Z,99550.41
2023-08-31T06:36:59.230Z,99559.19
2023-08-31T06:42:02.457Z,99563.44
2023-08-31T06:47:08.570Z,99560.19
2023-08-31T06:52:21.686Z,99577.72
2023-08-31T06:57:32.779Z,99578.75
2023-08-31T07:02:39.280Z,99575.47
2023-08-31T07:07:42.567Z,99579.16
2023-08-31T07:12:45.567Z,99579.31
2023-08-31T07:17:49.925Z,99590.50
2023-08-31T07:22:52.984Z,99596.66
2023-08-31T07:27:56.457Z,99587.69
2023-08-31T07:33:11.091Z,99602.53
2023-08-31T07:38:20.285Z,99597.97
2023-08-31T07:43:23.345Z,99609.38
2023-08-31T07:48:27.903Z,99606.78
2023-08-31T07:53:31.068Z,99608.91
2023-08-31T07:58:34.332Z,99617.13
2023-08-31T08:03:39.671Z,99630.09
2023-08-31T08:08:43.463Z,99635.75
2023-08-31T08:13:46.543Z,99649.19
2023-08-31T08:18:54.334Z,99637.94
2023-08-31T08:23:57.558Z,99641.09
2023-08-31T08:29:00.959Z,99645.44
2023-08-31T08:34:05.891Z,99651.06
2023-08-31T08:39:09.076Z,99642.47
2023-08-31T08:44:12.524Z,99659.97
2023-08-31T08:49:17.398Z,99651.97
2023-08-31T08:54:21.142Z,99644.81
2023-08-31T08:59:24.778Z,99670.53
2023-08-31T09:04:31.383Z,99655.03
2023-08-31T09:09:34.637Z,99655.88
2023-08-31T09:14:37.950Z,99658.50
2023-08-31T09:19:42.527Z,99664.09
2023-08-31T09:24:46.096Z,99670.81
2023-08-31T09:29:49.385Z,99673.44
2023-08-31T09:35:02.791Z,99693.72
2023-08-31T09:40:10.554Z,99739.94
2023-08-31T09:45:13.616Z,99718.00
2023-08-31T09:50:18.437Z,99707.94
2023-08-31T09:55:22.121Z,99703.59
2023-08-31T10:00:25.669Z,99697.63
2023-08-31T10:05:31.073Z,99699.69
2023-08-31T10:10:46.395Z,99691.16
2023-08-31T10:15:51.230Z,99698.69
2023-08-31T10:20:55.712Z,99688.38
2023-08-31T10:26:02.792Z,99679.88
2023-08-31T10:31:07.277Z,99678.09
2023-08-31T10:36:16.467Z,99680.88
2023-08-31T10:41:22.160Z,99675.66
2023-08-31T10:46:29.965Z,99668.53
2023-08-31T10:51:35.171Z,99656.28
2023-08-31T10:56:54.374Z,99665.66
2023-08-31T11:01:58.128Z,99653.09
2023-08-31T11:07:22.076Z,99642.75
2023-08-31T11:12:25.978Z,99636.75
2023-08-31T11:17:30.761Z,99654.75
2023-08-31T11:22:35.598Z,99643.81
2023-08-31T11:27:39.658Z,99641.41
2023-08-31T11:32:47.581Z,99639.75
2023-08-31T11:37:54.260Z,99636.22
2023-08-31T11:42:57.657Z,99638.13
2023-08-31T11:48:01.178Z,99622.78
2023-08-31T11:53:06.262Z,99641.91
2023-08-31T11:58:10.697Z,99623.34
2023-08-31T12:03:14.438Z,99647.47
2023-08-31T12:08:19.485Z,99617.25
2023-08-31T12:13:23.214Z,99614.94
2023-08-31T12:18:26.450Z,99620.03
2023-08-31T12:23:31.065Z,99599.59
2023-08-31T12:28:34.154Z,99612.53
2023-08-31T12:33:37.208Z,99618.78
2023-08-31T12:38:41.577Z,99607.63
2023-08-31T12:43:44.651Z,99622.19
2023-08-31T12:48:49.568Z,99616.75
2023-08-31T12:53:53.953Z,99607.25
2023-08-31T12:58:57.086Z,99631.88
2023-08-31T13:04:00.214Z,99644.72
2023-08-31T13:09:06.990Z,99615.69
2023-08-31T13:14:09.959Z,99645.22
2023-08-31T13:19:12.951Z,99617.25
2023-08-31T13:24:18.020Z,99642.97
2023-08-31T13:29:21.620Z,99622.44
2023-08-31T13:34:25.017Z,99628.63
2023-08-31T13:39:29.704Z,99622.19
2023-08-31T13:44:33.155Z,99635.13
2023-08-31T13:49:38.850Z,99638.19
2023-08-31T13:54:44.320Z,99637.63
2023-08-31T13:59:48.493Z,99643.28
2023-08-31T14:04:52.670Z,99641.84
2023-08-31T14:09:57.867Z,99638.59
2023-08-31T14:15:03.235Z,99644.06
2023-08-31T14:20:12.102Z,99627.25
2023-08-31T14:25:20.862Z,99631.91
2023-08-31T14:30:28.649Z,99623.28
2023-08-31T14:35:34.956Z,99629.63
2023-08-31T14:40:45.115Z,99628.94
2023-08-31T14:45:51.505Z,99638.63
2023-08-31T14:50:56.731Z,99630.66
2023-08-31T14:56:01.877Z,99634.66
2023-08-31T15:01:10.162Z,99658.44
2023-08-31T15:06:14.371Z,99649.88
2023-08-31T15:11:18.902Z,99655.56
2023-08-31T15:16:21.981Z,99658.50
2023-08-31T15:21:25.684Z,99672.66
2023-08-31T15:26:32.055Z,99678.19
2023-08-31T15:31:35.416Z,99668.13
2023-08-31T15:36:38.642Z,99672.63
2023-08-31T15:41:44.131Z,99668.81
2023-08-31T15:46:51.547Z,99674.97
2023-08-31T15:51:57.107Z,99676.22
2023-08-31T15:57:02.062Z,99671.72
2023-08-31T16:02:07.148Z,99687.19
2023-08-31T16:07:13.501Z,99693.28
2023-08-31T16:12:19.218Z,99696.75
2023-08-31T16:17:22.526Z,99701.69
2023-08-31T16:22:25.604Z,99698.47
2023-08-31T16:27:30.596Z,99691.34
2023-08-31T16:32:34.361Z,99689.09
2023-08-31T16:37:37.627Z,99690.22
2023-08-31T16:42:43.025Z,99695.66
2023-08-31T16:47:46.679Z,99701.47
2023-08-31T16:52:50.011Z,99713.59
2023-08-31T16:57:54.908Z,99718.13
2023-08-31T17:02:58.352Z,99710.59
2023-08-31T17:08:01.453Z,99706.25
2023-08-31T17:13:06.658Z,99699.72
2023-08-31T17:18:10.696Z,99720.09
2023-08-31T17:23:16.356Z,99714.19
2023-08-31T17:28:21.212Z,99717.00
2023-08-31T17:33:25.556Z,99710.94
2023-08-31T17:38:29.123Z,99710.03
2023-08-31T17:43:33.502Z,99706.13
2023-08-31T17:48:37.299Z,99718.09
2023-08-31T17:53:42.076Z,99719.25
2023-08-31T17:58:47.053Z,99760.50
2023-08-31T18:03:50.935Z,99764.50
2023-08-31T18:08:54.255Z,99785.25
2023-08-31T18:13:58.803Z,99763.78
2023-08-31T18:19:04.527Z,99781.38
2023-08-31T18:24:09.248Z,99781.44
2023-08-31T18:29:14.344Z,99785.31
2023-08-31T18:34:17.449Z,99784.53
2023-08-31T18:39:21.169Z,99798.59
2023-08-31T18:44:26.356Z,99790.06
2023-08-31T18:49:30.101Z,99786.38
2023-08-31T18:54:34.674Z,99795.41
2023-08-31T18:59:47.577Z,99802.59
2023-08-31T19:04:53.108Z,99802.97
2023-08-31T19:10:07.378Z,99814.41
2023-08-31T19:15:13.352Z,99865.56
2023-08-31T19:20:17.268Z,99921.38
2023-08-31T19:25:21.201Z,99941.59
2023-08-31T19:30:25.886Z,99950.88
2023-08-31T19:35:56.731Z,99945.25
2023-08-31T19:40:53.004Z,99948.84
2023-08-31T19:45:57.600Z,99956.78
2023-08-31T19:51:06.723Z,99949.13
2023-08-31T19:56:10.283Z,99936.94
2023-08-31T20:01:15.250Z,99928.66
2023-08-31T20:06:18.336Z,99926.06
2023-08-31T20:11:22.958Z,99920.06
2023-08-31T20:16:27.656Z,99921.19
2023-08-31T20:21:31.410Z,99914.03
2023-08-31T20:26:35.009Z,99904.41
2023-08-31T20:31:39.779Z,99899.63
2023-08-31T20:36:43.008Z,99911.47
2023-08-31T20:41:46.055Z,99912.66
2023-08-31T20:46:50.252Z,99922.13
2023-08-31T20:51:53.153Z,99922.91
2023-08-31T20:56:56.311Z,99926.03
2023-08-31T21:02:00.723Z,99924.97
2023-08-31T21:07:03.728Z,99924.72
2023-08-31T21:12:07.592Z,99919.03
2023-08-31T21:17:12.247Z,99934.25
2023-08-31T21:22:15.168Z,99936.81
2023-08-31T21:27:17.946Z,99952.34
2023-08-31T21:32:22.281Z,99941.59
2023-08-31T21:37:25.252Z,99942.75
2023-08-31T21:42:28.064Z,99938.06
2023-08-31T21:47:32.601Z,99943.03
2023-08-31T21:52:35.444Z,99966.56
2023-08-31T21:57:39.189Z,99968.03
2023-08-31T22:02:44.148Z,99970.66
2023-08-31T22:07:48.836Z,99970.91
2023-08-31T22:12:53.249Z,99977.81
2023-08-31T22:17:58.998Z,99986.66
2023-08-31T22:23:02.944Z,99982.75
2023-08-31T22:28:07.026Z,99981.06
2023-08-31T22:33:11.673Z,99972.09
2023-08-31T22:38:15.295Z,99980.16
2023-08-31T22:43:18.360Z,99969.84
2023-08-31T22:48:22.704Z,99963.69
2023-08-31T22:53:25.464Z,99958.69
2023-08-31T22:58:29.345Z,99962.03
2023-08-31T23:03:33.859Z,99960.00
2023-08-31T23:08:37.027Z,99960.41
2023-08-31T23:13:40.598Z,99952.97
2023-08-31T23:18:45.112Z,99953.22
2023-08-31T23:23:48.136Z,99960.78
2023-08-31T23:28:51.108Z,99960.63
2023-08-31T23:33:55.630Z,99956.78
2023-08-31T23:38:58.628Z,99979.59
2023-08-31T23:44:01.510Z,99972.25
2023-08-31T23:49:05.795Z,99972.66
2023-08-31T23:54:08.899Z,99969.94
2023-08-31T23:59:11.772Z,99955.84
